Terminal Aerodrome Forecast
Issued by NWS Charleston, WV

Home | Current Version | Previous Version | Text Only | Print | Product List | Glossary On
Versions: 1 2 3 4 5 6 7 8 9 10 11 12 13 14 15 16 17 18 19 20 21 22 23 24 25 26 27 28 29 30
000
FTUS41 KRLX 301700
TAFPKB
TAF
KPKB 301733Z 3018/3118 31010G18KT P6SM -SHSN OVC035
     FM302000 32009G16KT P6SM BKN030
     FM310400 32004KT P6SM SCT025
     FM311500 21004KT P6SM SCT020=

USA.gov is the U.S. government's official web portal to all federal, state and local government web resources and services.